Time;durP1;ratioP1;P1;durP2;ratioP2;P2;SDS_P1;SDS_P2;PMS_P1;PMS_P2;Temp;Humidity;BMP_temperature;BMP_pressure;BME280_temperature;BME280_humidity;BME280_pressure;Samples;Min_cycle;Max_cycle;Signal;HPM_P1;HPM_P2
2023/10/27 00:00:36;;;;;;;0.52;0.52;;;;;;;9.39;93.97;96371.50;5027271;28;20082;-79
2023/10/27 00:03:02;;;;;;;0.50;0.50;;;;;;;9.44;93.92;96377.69;5026020;28;20072;-78
2023/10/27 00:05:28;;;;;;;0.50;0.50;;;;;;;9.43;94.13;96373.22;5025886;28;20045;-78
2023/10/27 00:07:53;;;;;;;0.50;0.50;;;;;;;9.44;94.44;96374.13;5026067;28;20041;-78
2023/10/27 00:10:19;;;;;;;0.60;0.60;;;;;;;9.48;94.06;96368.75;5028356;28;20037;-78
2023/10/27 00:12:44;;;;;;;0.60;0.60;;;;;;;9.51;94.21;96374.09;5027875;28;20072;-78
2023/10/27 00:15:10;;;;;;;0.50;0.50;;;;;;;9.49;94.31;96377.66;5024093;28;20536;-78
2023/10/27 00:17:36;;;;;;;0.50;0.50;;;;;;;9.43;93.69;96373.22;5025236;28;20041;-77
2023/10/27 00:20:05;;;;;;;0.50;0.50;;;;;;;9.40;94.21;96377.69;5026590;28;20053;-78
2023/10/27 00:22:32;;;;;;;0.50;0.50;;;;;;;9.39;93.87;96374.16;5024369;28;20040;-78
2023/10/27 00:24:59;;;;;;;0.50;0.50;;;;;;;9.39;94.18;96373.25;5025112;28;20132;-77
2023/10/27 00:27:25;;;;;;;0.60;0.60;;;;;;;9.39;93.96;96370.59;5026792;28;20037;-77
2023/10/27 00:29:50;;;;;;;0.50;0.50;;;;;;;9.36;94.22;96365.28;5006684;28;20453;-78
2023/10/27 00:32:16;;;;;;;0.50;0.50;;;;;;;9.46;94.20;96367.91;5006659;28;20068;-78
2023/10/27 00:34:42;;;;;;;0.50;0.50;;;;;;;9.37;94.08;96359.94;5023140;28;20040;-78
2023/10/27 00:37:07;;;;;;;0.50;0.50;;;;;;;9.38;93.97;96367.03;5024547;28;20034;-78
2023/10/27 00:39:33;;;;;;;0.50;0.50;;;;;;;9.37;94.44;96373.25;5027428;28;20616;-78
2023/10/27 00:41:58;;;;;;;0.50;0.50;;;;;;;9.38;93.93;96369.69;5026947;28;20395;-78
2023/10/27 00:44:24;;;;;;;0.60;0.60;;;;;;;9.41;93.89;96364.38;5005567;28;20045;-77
2023/10/27 00:46:50;;;;;;;0.50;0.50;;;;;;;9.40;94.13;96367.06;5003049;28;20100;-77
2023/10/27 00:49:16;;;;;;;0.60;0.60;;;;;;;9.40;94.01;96362.63;5020108;28;20048;-77
2023/10/27 00:51:46;;;;;;;0.60;0.60;;;;;;;9.37;93.99;96365.28;5008305;28;20590;-78
2023/10/27 00:54:15;;;;;;;0.57;0.57;;;;;;;9.31;94.48;96362.66;5024981;28;20069;-78
2023/10/27 00:56:41;;;;;;;0.50;0.50;;;;;;;9.31;94.45;96367.97;5023637;28;20037;-77
2023/10/27 00:59:07;;;;;;;0.50;0.50;;;;;;;9.33;94.45;96370.63;5024375;28;20064;-77
2023/10/27 01:01:33;;;;;;;0.50;0.50;;;;;;;9.34;94.25;96367.06;5009653;28;20228;-78
2023/10/27 01:03:59;;;;;;;0.50;0.50;;;;;;;9.31;94.02;96367.09;5046236;23;20103;-80
2023/10/27 01:06:25;;;;;;;0.50;0.50;;;;;;;9.30;94.48;96360.88;5046686;28;20028;-80
2023/10/27 01:08:51;;;;;;;0.50;0.50;;;;;;;9.29;94.13;96360.88;5029274;28;20041;-83
2023/10/27 01:11:18;;;;;;;0.50;0.50;;;;;;;9.28;94.09;96360.00;5041323;28;20075;-80
2023/10/27 01:13:44;;;;;;;0.50;0.50;;;;;;;9.30;94.33;96358.22;5044239;28;20083;-82
2023/10/27 01:16:09;;;;;;;0.50;0.50;;;;;;;9.26;94.08;96359.13;5028852;28;20078;-81
2023/10/27 01:18:35;;;;;;;0.50;0.50;;;;;;;9.25;94.13;96344.06;5045909;28;20854;-82
2023/10/27 01:21:00;;;;;;;0.50;0.50;;;;;;;9.22;94.10;96341.41;5044058;28;20041;-81
2023/10/27 01:23:26;;;;;;;0.50;0.50;;;;;;;9.26;94.42;96343.16;5043817;28;20097;-82
2023/10/27 01:25:52;;;;;;;0.45;0.45;;;;;;;9.27;94.27;96344.94;5045275;28;20032;-81
2023/10/27 01:28:18;;;;;;;0.50;0.50;;;;;;;9.30;93.42;96339.59;5046803;28;20033;-83
2023/10/27 01:30:43;;;;;;;0.60;0.60;;;;;;;9.23;93.54;96341.38;5042426;28;20047;-80
2023/10/27 01:33:09;;;;;;;0.60;0.60;;;;;;;9.20;94.04;96337.88;5044410;28;20446;-80
2023/10/27 01:35:35;;;;;;;0.60;0.60;;;;;;;9.19;93.82;96333.41;5044226;28;20048;-82
2023/10/27 01:38:01;;;;;;;0.50;0.50;;;;;;;9.28;94.06;96330.72;5041063;28;20405;-81
2023/10/27 01:40:27;;;;;;;0.50;0.50;;;;;;;9.27;93.74;96331.63;5021976;28;20131;-83
2023/10/27 01:42:53;;;;;;;0.57;0.57;;;;;;;9.23;94.05;96333.41;5021670;28;20068;-81
2023/10/27 01:45:18;;;;;;;0.50;0.50;;;;;;;9.27;93.49;96330.75;5007980;28;20037;-81
2023/10/27 01:47:44;;;;;;;0.60;0.60;;;;;;;9.21;93.77;96329.00;4991559;28;20052;-81
2023/10/27 01:50:09;;;;;;;0.50;0.50;;;;;;;9.23;93.78;96333.41;5003497;28;20390;-81
2023/10/27 01:52:35;;;;;;;0.50;0.50;;;;;;;9.19;93.54;96333.41;5003712;28;20683;-80
2023/10/27 01:55:00;;;;;;;0.50;0.50;;;;;;;9.17;93.52;96332.56;5004601;28;20099;-82
2023/10/27 01:57:26;;;;;;;0.50;0.50;;;;;;;9.13;93.71;96337.00;5007878;28;20038;-81
2023/10/27 01:59:51;;;;;;;0.50;0.50;;;;;;;9.15;93.52;96335.22;5009437;28;20040;-81
2023/10/27 02:02:17;;;;;;;0.50;0.50;;;;;;;9.14;93.71;96327.25;5008392;28;20044;-81
2023/10/27 02:04:43;;;;;;;0.52;0.52;;;;;;;9.13;93.92;96328.13;5024805;28;20029;-81
2023/10/27 02:07:09;;;;;;;0.55;0.55;;;;;;;9.14;93.44;96329.91;4991094;28;20041;-81
2023/10/27 02:09:35;;;;;;;0.55;0.55;;;;;;;9.13;93.17;96331.69;5024169;28;20049;-82
2023/10/27 02:12:00;;;;;;;0.50;0.50;;;;;;;9.14;93.07;96329.91;5008419;28;20907;-81
2023/10/27 02:14:26;;;;;;;0.50;0.50;;;;;;;9.10;92.81;96323.72;5004749;28;20045;-81
2023/10/27 02:16:52;;;;;;;0.60;0.60;;;;;;;9.09;93.01;96318.38;5006251;28;20052;-82
2023/10/27 02:19:17;;;;;;;0.55;0.55;;;;;;;9.00;93.03;96317.53;5022692;28;20141;-81
2023/10/27 02:21:43;;;;;;;0.52;0.52;;;;;;;8.97;93.36;96316.69;5004780;28;20033;-81
2023/10/27 02:24:08;;;;;;;0.50;0.50;;;;;;;8.91;93.74;96330.88;5003950;28;20037;-81
2023/10/27 02:26:35;;;;;;;0.50;0.50;;;;;;;8.97;93.56;96328.19;5024008;28;20045;-81
2023/10/27 02:29:01;;;;;;;0.60;0.60;;;;;;;9.06;92.40;96327.28;5008805;28;20120;-81
2023/10/27 02:31:26;;;;;;;0.60;0.60;;;;;;;9.04;92.60;96331.72;5006535;28;20067;-81
2023/10/27 02:33:52;;;;;;;0.50;0.50;;;;;;;9.05;92.67;96322.84;5007196;28;20037;-81
2023/10/27 02:36:17;;;;;;;0.60;0.60;;;;;;;8.94;92.88;96312.25;5008825;28;20048;-81
2023/10/27 02:38:43;;;;;;;0.50;0.50;;;;;;;8.91;93.15;96311.34;5008963;28;20048;-83
2023/10/27 02:41:10;;;;;;;0.50;0.50;;;;;;;8.96;92.47;96321.13;5026416;28;20041;-81
2023/10/27 02:43:37;;;;;;;0.60;0.60;;;;;;;9.02;92.11;96319.31;5008553;28;20038;-82
2023/10/27 02:46:04;;;;;;;0.60;0.60;;;;;;;8.89;92.74;96322.00;5023785;28;20462;-84
2023/10/27 02:48:30;;;;;;;0.63;0.63;;;;;;;8.91;92.40;96319.34;5007171;28;20056;-80
2023/10/27 02:50:55;;;;;;;0.52;0.52;;;;;;;8.84;92.47;96313.16;5024951;28;20125;-80
2023/10/27 02:53:21;;;;;;;0.50;0.50;;;;;;;8.95;91.56;96308.69;5004794;28;20038;-82
2023/10/27 02:55:46;;;;;;;0.55;0.55;;;;;;;8.94;91.48;96314.03;5022388;28;20037;-80
2023/10/27 02:58:12;;;;;;;0.52;0.52;;;;;;;8.96;91.12;96310.47;5004284;28;20056;-81
2023/10/27 03:00:44;;;;;;;0.50;0.50;;;;;;;8.89;91.61;96300.75;5020955;28;20870;-81
2023/10/27 03:03:09;;;;;;;0.50;0.50;;;;;;;8.82;92.04;96308.75;5001244;28;20089;-81
2023/10/27 03:05:36;;;;;;;0.50;0.50;;;;;;;8.83;92.35;96302.53;5022703;28;20041;-81
2023/10/27 03:08:03;;;;;;;0.63;0.63;;;;;;;8.90;91.29;96309.59;4990783;28;20030;-82
2023/10/27 03:10:28;;;;;;;0.60;0.60;;;;;;;8.84;91.82;96313.16;5005296;28;20486;-82
2023/10/27 03:12:54;;;;;;;0.60;0.60;;;;;;;8.96;90.30;96312.25;5021591;28;20055;-80
2023/10/27 03:15:20;;;;;;;0.50;0.50;;;;;;;8.80;90.96;96306.06;5001122;28;20037;-80
2023/10/27 03:17:45;;;;;;;0.50;0.50;;;;;;;8.84;90.93;96318.47;5020528;28;20124;-81
2023/10/27 03:20:12;;;;;;;0.50;0.50;;;;;;;8.70;91.92;96309.66;5007820;28;20041;-80
2023/10/27 03:22:37;;;;;;;0.50;0.50;;;;;;;8.68;92.47;96309.66;5005181;28;20051;-80
2023/10/27 03:25:03;;;;;;;0.50;0.50;;;;;;;8.68;92.49;96301.69;5007233;28;20041;-81
2023/10/27 03:27:30;;;;;;;0.52;0.52;;;;;;;8.69;92.66;96297.25;4985949;28;20038;-81
2023/10/27 03:29:56;;;;;;;0.50;0.50;;;;;;;8.63;92.83;96297.28;4989303;28;20119;-81
2023/10/27 03:32:22;;;;;;;0.60;0.60;;;;;;;8.73;93.29;96293.72;5020185;28;20029;-81
2023/10/27 03:34:48;;;;;;;0.60;0.60;;;;;;;8.88;91.04;96293.66;5004564;28;20036;-82
2023/10/27 03:37:13;;;;;;;0.50;0.50;;;;;;;8.81;90.66;96286.56;5025576;28;20030;-81
2023/10/27 03:39:40;;;;;;;0.60;0.60;;;;;;;8.68;91.48;96285.75;5012303;28;20419;-81
2023/10/27 03:42:07;;;;;;;0.60;0.60;;;;;;;8.77;92.05;96287.50;5014377;28;20038;-82
2023/10/27 03:44:35;;;;;;;0.60;0.60;;;;;;;8.71;92.49;96284.84;5027935;28;20065;-82
2023/10/27 03:47:01;;;;;;;0.60;0.60;;;;;;;8.71;92.09;96291.03;5027218;28;20045;-82
2023/10/27 03:49:27;;;;;;;0.60;0.60;;;;;;;8.60;92.55;96297.28;5025876;28;20118;-82
2023/10/27 03:51:53;;;;;;;0.60;0.60;;;;;;;8.66;92.94;96289.28;5009115;28;20061;-81
2023/10/27 03:54:19;;;;;;;0.60;0.60;;;;;;;8.78;93.00;96281.28;5004959;28;20034;-82
2023/10/27 03:56:45;;;;;;;0.50;0.50;;;;;;;8.72;93.03;96278.66;5005500;28;20034;-83
2023/10/27 03:59:10;;;;;;;0.60;0.60;;;;;;;8.67;92.95;96284.00;5023658;28;20060;-81
2023/10/27 04:01:37;;;;;;;0.60;0.60;;;;;;;8.61;93.24;96291.94;5007378;28;20735;-82
2023/10/27 04:04:03;;;;;;;;;;;;;;;8.55;93.33;96288.44;5002754;28;20078;-81
2023/10/27 04:06:28;;;;;;;0.60;0.60;;;;;;;8.52;93.12;96280.47;5019348;28;19921;-82
2023/10/27 04:08:54;;;;;;;0.50;0.50;;;;;;;8.65;93.00;96279.56;5021446;28;20108;-83
2023/10/27 04:11:20;;;;;;;0.52;0.52;;;;;;;8.57;93.73;96271.59;5025299;28;20041;-82
2023/10/27 04:13:45;;;;;;;0.60;0.60;;;;;;;8.50;93.64;96267.19;5023337;28;20183;-82
2023/10/27 04:16:12;;;;;;;0.60;0.60;;;;;;;8.50;93.57;96268.97;5004599;28;20041;-82
2023/10/27 04:18:37;;;;;;;0.60;0.60;;;;;;;8.48;93.76;96261.88;5023088;28;20033;-82
2023/10/27 04:21:04;;;;;;;0.60;0.60;;;;;;;8.50;93.28;96261.88;5022317;28;20038;-81
2023/10/27 04:23:29;;;;;;;0.60;0.60;;;;;;;8.51;93.52;96262.75;5009647;28;20518;-81
2023/10/27 04:25:55;;;;;;;0.60;0.60;;;;;;;8.52;92.87;96261.84;5023701;28;20037;-79
2023/10/27 04:28:21;;;;;;;0.60;0.60;;;;;;;8.47;92.87;96268.06;5021091;28;20099;-80
2023/10/27 04:30:46;;;;;;;0.65;0.65;;;;;;;8.48;93.06;96267.22;5026660;28;20034;-80
2023/10/27 04:33:12;;;;;;;0.60;0.60;;;;;;;8.45;93.23;96268.97;5024083;28;20107;-81
2023/10/27 04:35:37;;;;;;;0.52;0.52;;;;;;;8.48;92.91;96271.63;5007778;28;20043;-82
2023/10/27 04:38:03;;;;;;;0.60;0.60;;;;;;;8.60;92.10;96271.59;5023512;28;20034;-82
2023/10/27 04:40:30;;;;;;;0.60;0.60;;;;;;;8.53;92.74;96276.91;5023539;28;20124;-82
2023/10/27 04:42:58;;;;;;;0.60;0.60;;;;;;;8.54;92.47;96276.94;5008009;28;20411;-80
2023/10/27 04:45:24;;;;;;;0.60;0.60;;;;;;;8.53;92.63;96282.22;5025000;28;20057;-83
2023/10/27 04:47:49;;;;;;;0.60;0.60;;;;;;;8.56;92.09;96275.13;5024497;28;20447;-82
2023/10/27 04:50:17;;;;;;;0.57;0.57;;;;;;;8.63;91.26;96294.63;5012535;28;21225;-84
2023/10/27 04:52:43;;;;;;;0.63;0.63;;;;;;;8.74;90.45;96292.81;5004913;28;20030;-81
2023/10/27 04:55:09;;;;;;;0.60;0.60;;;;;;;8.79;89.74;96288.38;5025890;28;20449;-81
2023/10/27 04:57:35;;;;;;;0.60;0.60;;;;;;;8.78;89.42;96296.34;5025040;28;20048;-81
2023/10/27 05:00:01;;;;;;;0.60;0.60;;;;;;;8.81;88.99;96291.88;5025031;28;20025;-81
2023/10/27 05:02:27;;;;;;;0.70;0.70;;;;;;;8.78;89.00;96291.91;5024801;28;20029;-82
2023/10/27 05:04:52;;;;;;;0.60;0.60;;;;;;;8.72;89.92;96297.25;5017579;28;20052;-82
2023/10/27 05:07:18;;;;;;;0.60;0.60;;;;;;;8.63;90.66;96295.50;5026405;28;20029;-81
2023/10/27 05:09:43;;;;;;;0.60;0.60;;;;;;;8.62;91.05;96295.50;5023070;28;20029;-81
2023/10/27 05:12:09;;;;;;;0.60;0.60;;;;;;;8.57;91.39;96298.16;5027992;28;20052;-81
2023/10/27 05:14:34;;;;;;;0.60;0.60;;;;;;;8.71;90.41;96293.69;5007074;28;20076;-81
2023/10/27 05:17:00;;;;;;;0.60;0.60;;;;;;;8.69;90.28;96297.25;5025714;28;20148;-82
2023/10/27 05:19:26;;;;;;;0.60;0.60;;;;;;;8.77;89.38;96292.81;5007077;28;20045;-81
2023/10/27 05:21:51;;;;;;;0.50;0.50;;;;;;;8.65;90.50;96288.41;5005867;28;20080;-81
2023/10/27 05:24:17;;;;;;;0.60;0.60;;;;;;;8.71;90.24;96284.84;5026548;28;20049;-79
2023/10/27 05:26:42;;;;;;;0.60;0.60;;;;;;;8.62;90.76;96285.75;5023934;28;20033;-80
2023/10/27 05:29:08;;;;;;;0.60;0.60;;;;;;;8.65;90.38;96290.19;5028197;28;20360;-81
2023/10/27 05:31:34;;;;;;;0.60;0.60;;;;;;;8.58;90.88;96293.75;5027249;28;20040;-82
2023/10/27 05:34:00;;;;;;;0.60;0.60;;;;;;;8.60;91.19;96298.16;5022346;28;20030;-82
2023/10/27 05:36:26;;;;;;;0.60;0.60;;;;;;;8.64;91.31;96305.25;5027399;28;20040;-82
2023/10/27 05:38:51;;;;;;;0.60;0.60;;;;;;;8.63;90.80;96313.22;5027294;28;20052;-81
2023/10/27 05:41:17;;;;;;;0.60;0.60;;;;;;;8.57;90.83;96310.56;5026682;28;20389;-82
2023/10/27 05:43:42;;;;;;;0.50;0.50;;;;;;;8.57;91.26;96306.13;5022365;28;20041;-81
2023/10/27 05:46:08;;;;;;;0.60;0.60;;;;;;;8.60;91.58;96302.59;5021829;28;20373;-81
2023/10/27 05:48:34;;;;;;;0.60;0.60;;;;;;;8.78;91.50;96305.22;5005254;28;20145;-82
2023/10/27 05:50:59;;;;;;;0.68;0.68;;;;;;;8.68;91.58;96300.81;5025376;28;20479;-82
2023/10/27 05:53:25;;;;;;;0.60;0.60;;;;;;;8.73;91.82;96305.22;4991552;28;20422;-81
2023/10/27 05:55:51;;;;;;;0.50;0.50;;;;;;;8.73;92.00;96301.69;5024204;28;20045;-82
2023/10/27 05:58:16;;;;;;;0.60;0.60;;;;;;;8.71;92.13;96312.31;5006568;28;20562;-82
2023/10/27 06:00:42;;;;;;;0.57;0.57;;;;;;;8.73;91.96;96310.53;5024010;28;20122;-84
2023/10/27 06:03:08;;;;;;;0.60;0.60;;;;;;;8.70;91.89;96317.63;5005439;28;20037;-85
2023/10/27 06:05:33;;;;;;;0.60;0.60;;;;;;;8.72;91.76;96324.72;5012053;28;20380;-83
2023/10/27 06:07:59;;;;;;;0.52;0.52;;;;;;;8.78;91.95;96329.13;5028088;28;20731;-82
2023/10/27 06:10:24;;;;;;;0.52;0.52;;;;;;;8.76;92.35;96336.22;5024770;28;20029;-83
2023/10/27 06:12:50;;;;;;;0.55;0.55;;;;;;;8.82;92.48;96346.84;5008089;28;20052;-82
2023/10/27 06:15:15;;;;;;;0.60;0.60;;;;;;;8.81;92.24;96354.81;5014399;28;20030;-82
2023/10/27 06:17:41;;;;;;;0.50;0.50;;;;;;;8.88;92.12;96357.47;5006966;28;20107;-81
2023/10/27 06:20:07;;;;;;;0.60;0.60;;;;;;;8.88;91.90;96352.16;5027007;28;20045;-82
2023/10/27 06:22:32;;;;;;;0.55;0.55;;;;;;;8.73;91.92;96368.16;5003853;28;20196;-83
2023/10/27 06:24:58;;;;;;;0.50;0.50;;;;;;;8.66;92.41;96364.59;5021643;28;20041;-82
2023/10/27 06:27:24;;;;;;;0.50;0.50;;;;;;;8.62;92.37;96368.13;5009807;28;20111;-84
2023/10/27 06:29:49;;;;;;;0.60;0.60;;;;;;;8.58;92.44;96381.47;5005505;28;20041;-84
2023/10/27 06:32:15;;;;;;;0.60;0.60;;;;;;;8.61;93.09;96365.50;5023368;28;20091;-83
2023/10/27 06:34:41;;;;;;;0.60;0.60;;;;;;;8.65;92.98;96360.16;5014864;28;20045;-82
2023/10/27 06:37:07;;;;;;;0.60;0.60;;;;;;;8.63;92.96;96377.03;5025626;28;20041;-83
2023/10/27 06:39:33;;;;;;;0.60;0.60;;;;;;;8.68;93.22;96370.81;5025113;28;20022;-82
2023/10/27 06:41:59;;;;;;;0.60;0.60;;;;;;;8.77;93.29;96375.22;5025986;28;20461;-84
2023/10/27 06:44:25;;;;;;;0.60;0.60;;;;;;;8.72;93.13;96377.91;5010461;28;20360;-83
2023/10/27 06:46:53;;;;;;;0.60;0.60;;;;;;;8.70;93.13;96378.78;5027967;28;20083;-85
2023/10/27 06:49:18;;;;;;;;;;;;;;;8.77;92.64;96393.84;5007722;28;20037;-83
2023/10/27 06:51:44;;;;;;;0.57;0.57;;;;;;;8.84;92.91;96405.34;5023681;28;19913;-84
2023/10/27 06:54:10;;;;;;;0.52;0.52;;;;;;;8.79;92.71;96393.81;5026106;28;20465;-83
2023/10/27 06:56:35;;;;;;;0.60;0.60;;;;;;;8.71;92.99;96389.41;5010727;28;20041;-85
2023/10/27 06:59:01;;;;;;;0.60;0.60;;;;;;;8.74;92.76;96401.81;5032090;28;20033;-83
2023/10/27 07:01:26;;;;;;;0.60;0.60;;;;;;;8.84;91.83;96395.59;5018398;28;20033;-84
2023/10/27 07:03:52;;;;;;;0.60;0.60;;;;;;;8.89;91.48;96404.44;5027537;28;20064;-83
2023/10/27 07:06:17;;;;;;;0.60;0.60;;;;;;;8.98;91.28;96408.84;4992997;28;20103;-86
2023/10/27 07:08:44;;;;;;;0.57;0.57;;;;;;;9.01;90.85;96414.19;5019071;28;20033;-85
2023/10/27 07:11:09;;;;;;;0.63;0.63;;;;;;;9.09;90.50;96407.06;5025808;28;20039;-85
2023/10/27 07:13:35;;;;;;;0.60;0.60;;;;;;;9.17;90.75;96413.25;5025694;28;20372;-83
2023/10/27 07:16:02;;;;;;;0.60;0.60;;;;;;;9.22;90.75;96405.25;5027582;28;20061;-85
2023/10/27 07:18:28;;;;;;;0.60;0.60;;;;;;;9.26;89.97;96412.34;5008967;28;20037;-83
2023/10/27 07:20:56;;;;;;;0.60;0.60;;;;;;;9.30;89.71;96408.78;5008009;28;20044;-85
2023/10/27 07:23:21;;;;;;;;;;;;;;;9.38;89.55;96417.59;5025912;28;20033;-85
2023/10/27 07:25:46;;;;;;;0.60;0.60;;;;;;;9.40;90.16;96413.19;5023398;28;19975;-84
2023/10/27 07:28:13;;;;;;;0.60;0.60;;;;;;;9.47;89.58;96409.59;4991511;28;20116;-84
2023/10/27 07:30:38;;;;;;;0.60;0.60;;;;;;;9.52;89.89;96410.44;5027449;28;20040;-83
2023/10/27 07:33:05;;;;;;;0.60;0.60;;;;;;;9.64;89.67;96416.63;5028344;28;20025;-84
2023/10/27 07:35:33;;;;;;;0.60;0.60;;;;;;;9.79;89.59;96416.56;5026085;28;20033;-85
2023/10/27 07:37:59;;;;;;;0.60;0.60;;;;;;;9.89;89.63;96420.94;5009735;28;20036;-85
2023/10/27 07:40:25;;;;;;;0.50;0.50;;;;;;;9.77;88.26;96420.97;5011669;28;20048;-84
2023/10/27 07:42:51;;;;;;;0.60;0.60;;;;;;;9.83;89.03;96425.44;5028805;28;20033;-82
2023/10/27 07:45:17;;;;;;;0.50;0.50;;;;;;;9.82;88.48;96416.56;5006194;28;20030;-83
2023/10/27 07:47:43;;;;;;;0.60;0.60;;;;;;;9.87;88.73;96425.41;5030761;28;20021;-84
2023/10/27 07:50:11;;;;;;;0.60;0.60;;;;;;;9.98;88.38;96428.88;5021558;28;20033;-83
2023/10/27 07:52:37;;;;;;;0.60;0.60;;;;;;;9.96;87.98;96435.09;5038095;28;20071;-83
2023/10/27 07:55:06;;;;;;;0.50;0.50;;;;;;;10.07;87.70;96432.41;5020145;28;20030;-83
2023/10/27 07:57:34;;;;;;;0.50;0.50;;;;;;;10.25;86.96;96434.94;5030122;28;20068;-83
2023/10/27 08:00:00;;;;;;;0.52;0.52;;;;;;;10.28;86.93;96434.94;5014378;28;20128;-83
2023/10/27 08:02:26;;;;;;;0.60;0.60;;;;;;;10.30;86.34;96426.94;5030955;28;20030;-83
2023/10/27 08:04:52;;;;;;;0.50;0.50;;;;;;;10.26;86.18;96434.09;5031491;28;20843;-83
2023/10/27 08:07:18;;;;;;;0.50;0.50;;;;;;;10.39;87.05;96441.06;5031980;28;20025;-82
2023/10/27 08:09:43;;;;;;;0.60;0.60;;;;;;;10.38;85.53;96438.44;5011822;28;20033;-83
2023/10/27 08:12:09;;;;;;;0.50;0.50;;;;;;;10.51;85.24;96454.31;5031245;28;20049;-83
2023/10/27 08:14:35;;;;;;;0.60;0.60;;;;;;;10.43;84.89;96453.50;5038016;28;20156;-83
2023/10/27 08:17:00;;;;;;;0.52;0.52;;;;;;;10.42;84.79;96465.06;5021403;28;20104;-83
2023/10/27 08:19:26;;;;;;;0.60;0.60;;;;;;;10.34;85.00;96456.22;5008152;28;21057;-83
2023/10/27 08:21:51;;;;;;;0.60;0.60;;;;;;;10.32;85.19;96459.81;5045054;28;20067;-83
2023/10/27 08:24:17;;;;;;;0.50;0.50;;;;;;;10.28;84.85;96469.59;5043347;28;20126;-82
2023/10/27 08:26:43;;;;;;;0.60;0.60;;;;;;;10.27;85.59;96481.16;5038042;28;20045;-83
2023/10/27 08:29:10;;;;;;;0.50;0.50;;;;;;;10.26;85.36;96479.38;5026482;28;20524;-82
2023/10/27 08:31:36;;;;;;;0.60;0.60;;;;;;;10.27;84.96;96486.47;5041986;28;20033;-82
2023/10/27 08:34:04;;;;;;;0.50;0.50;;;;;;;10.32;84.64;96500.66;5038683;28;20033;-83
2023/10/27 08:36:29;;;;;;;0.52;0.52;;;;;;;10.41;84.92;96491.72;5021048;28;20033;-82
2023/10/27 08:38:55;;;;;;;0.50;0.50;;;;;;;10.37;85.08;96484.63;5039459;28;20033;-82
2023/10/27 08:41:25;;;;;;;0.60;0.60;;;;;;;10.34;84.50;96492.66;5037629;28;20040;-82
2023/10/27 08:43:52;;;;;;;0.60;0.60;;;;;;;10.37;85.15;96497.97;5017739;28;20476;-83
2023/10/27 08:46:19;;;;;;;0.57;0.57;;;;;;;10.40;85.02;96493.50;5032149;28;20038;-81
2023/10/27 08:48:45;;;;;;;0.60;0.60;;;;;;;10.43;85.43;96495.25;5029738;28;20037;-81
2023/10/27 08:51:13;;;;;;;0.57;0.57;;;;;;;10.38;85.05;96497.06;4992498;28;20042;-83
2023/10/27 08:53:43;;;;;;;0.50;0.50;;;;;;;10.37;84.69;96498.84;5008654;28;20422;-82
2023/10/27 08:56:12;;;;;;;0.60;0.60;;;;;;;10.37;85.05;96506.84;5035767;28;20716;-83
2023/10/27 08:58:39;;;;;;;0.50;0.50;;;;;;;10.43;84.79;96511.25;5017330;28;20490;-83
2023/10/27 09:01:04;;;;;;;0.65;0.65;;;;;;;10.53;83.55;96504.97;5017519;28;20120;-83
2023/10/27 09:03:31;;;;;;;0.60;0.60;;;;;;;10.58;84.03;96507.59;5008949;28;20634;-81
2023/10/27 09:05:56;;;;;;;0.50;0.50;;;;;;;10.68;84.42;96510.22;5012283;28;20099;-82
2023/10/27 09:08:22;;;;;;;0.50;0.50;;;;;;;10.61;83.90;96508.47;5011628;28;20037;-82
2023/10/27 09:10:48;;;;;;;0.60;0.60;;;;;;;10.59;84.62;96512.94;5028576;28;20033;-83
2023/10/27 09:13:21;;;;;;;0.60;0.60;;;;;;;10.51;85.01;96520.97;5029367;28;20037;-82
2023/10/27 09:15:47;;;;;;;0.60;0.60;;;;;;;10.58;85.00;96515.59;5027686;28;20118;-83
2023/10/27 09:18:13;;;;;;;0.50;0.50;;;;;;;10.61;85.13;96512.94;5029086;28;20018;-83
2023/10/27 09:20:52;;;;;;;0.60;0.60;;;;;;;10.68;85.78;96525.31;5013676;28;20049;-82
2023/10/27 09:23:19;;;;;;;0.50;0.50;;;;;;;10.84;85.01;96523.44;5005248;28;20049;-83
2023/10/27 09:25:46;;;;;;;0.50;0.50;;;;;;;10.92;84.65;96529.56;5033134;28;20101;-84
2023/10/27 09:28:12;;;;;;;0.57;0.57;;;;;;;10.90;84.32;96528.72;5033226;28;20589;-83
2023/10/27 09:30:40;;;;;;;0.60;0.60;;;;;;;10.96;84.72;96532.22;5019204;28;20714;-83
2023/10/27 09:33:16;;;;;;;0.50;0.50;;;;;;;11.12;83.90;96526.78;5029349;28;20029;-83
2023/10/27 09:35:43;;;;;;;0.60;0.60;;;;;;;11.23;83.14;96540.91;5030894;28;20038;-83
2023/10/27 09:38:08;;;;;;;0.60;0.60;;;;;;;11.14;83.50;96546.31;4998902;28;20041;-83
2023/10/27 09:40:36;;;;;;;0.50;0.50;;;;;;;11.27;83.93;96540.88;5025289;28;20053;-82
2023/10/27 09:43:02;;;;;;;;;;;;;;;11.27;83.76;96554.22;5017586;28;20052;-82
2023/10/27 09:45:32;;;;;;;0.60;0.60;;;;;;;11.07;84.40;96561.50;5028399;28;20251;-82
2023/10/27 09:48:02;;;;;;;0.60;0.60;;;;;;;11.42;83.55;96563.88;5028072;28;20037;-82
2023/10/27 09:50:29;;;;;;;0.60;0.60;;;;;;;11.70;81.57;96566.28;5032390;28;20072;-83
2023/10/27 09:53:01;;;;;;;0.60;0.60;;;;;;;11.48;82.86;96560.25;5036949;28;20056;-83
2023/10/27 09:55:27;;;;;;;0.50;0.50;;;;;;;11.61;81.78;96567.25;5033581;28;20037;-83
2023/10/27 09:57:53;;;;;;;0.60;0.60;;;;;;;11.52;81.05;96570.00;5038040;28;20126;-83
2023/10/27 10:00:28;;;;;;;0.50;0.50;;;;;;;11.51;81.46;96579.81;5042866;28;20053;-83
2023/10/27 10:02:57;;;;;;;0.50;0.50;;;;;;;11.63;80.80;96578.78;5030888;28;20767;-83
2023/10/27 10:05:26;;;;;;;0.50;0.50;;;;;;;11.80;81.12;96576.84;5046704;28;20033;-84
2023/10/27 10:07:55;;;;;;;0.60;0.60;;;;;;;12.41;79.07;96585.09;5040821;28;20569;-83
2023/10/27 10:10:37;;;;;;;0.60;0.60;;;;;;;13.39;75.26;96573.88;5022522;28;20102;-83
2023/10/27 10:13:12;;;;;;;0.50;0.50;;;;;;;12.72;76.46;96574.88;5040994;28;20040;-82
2023/10/27 10:15:46;;;;;;;0.40;0.40;;;;;;;12.48;78.23;96585.00;5036549;28;20083;-82
2023/10/27 10:18:20;;;;;;;0.50;0.50;;;;;;;12.32;76.76;96580.75;5034815;28;20049;-81
2023/10/27 10:20:49;;;;;;;0.50;0.50;;;;;;;11.91;77.57;96589.25;5020147;28;20026;-83
2023/10/27 10:23:19;;;;;;;0.50;0.50;;;;;;;11.67;80.11;96588.56;5017339;28;20045;-82
2023/10/27 10:25:57;;;;;;;0.50;0.50;;;;;;;11.68;80.20;96598.31;5032994;28;20034;-83
2023/10/27 10:28:23;;;;;;;0.50;0.50;;;;;;;11.51;80.98;96600.28;5019413;28;20029;-81
2023/10/27 10:31:16;;;;;;;0.50;0.50;;;;;;;11.34;82.02;96600.41;5013342;28;20116;-81
2023/10/27 10:33:45;;;;;;;0.50;0.50;;;;;;;11.37;82.40;96607.53;5028116;28;20049;-81
2023/10/27 10:36:11;;;;;;;0.50;0.50;;;;;;;11.33;82.60;96612.00;5008910;28;20670;-81
2023/10/27 10:38:38;;;;;;;0.60;0.60;;;;;;;11.56;83.31;96612.69;5009374;28;20532;-81
2023/10/27 10:41:04;;;;;;;0.60;0.60;;;;;;;11.91;81.69;96610.63;4997867;28;20735;-81
2023/10/27 10:43:42;;;;;;;0.50;0.50;;;;;;;11.91;80.75;96615.97;5030838;28;20463;-82
2023/10/27 10:46:12;;;;;;;0.40;0.40;;;;;;;11.59;82.19;96609.09;5030278;28;20055;-81
2023/10/27 10:48:45;;;;;;;0.43;0.43;;;;;;;11.38;83.34;96614.63;5028399;28;20087;-82
2023/10/27 10:51:15;;;;;;;0.50;0.50;;;;;;;11.51;81.72;96609.19;5027219;28;20048;-81
2023/10/27 10:53:42;;;;;;;0.50;0.50;;;;;;;11.56;82.22;96609.13;5010765;28;20036;-80
2023/10/27 10:56:07;;;;;;;0.50;0.50;;;;;;;11.80;81.64;96602.69;5011627;28;20637;-80
2023/10/27 10:58:37;;;;;;;0.70;0.70;;;;;;;13.07;76.90;96596.66;5038071;28;20042;-81
2023/10/27 11:01:04;;;;;;;0.50;0.50;;;;;;;12.70;77.94;96599.00;5035801;28;20037;-81
2023/10/27 11:03:35;;;;;;;0.50;0.50;;;;;;;12.55;79.41;96607.19;5024438;28;20092;-80
2023/10/27 11:06:05;;;;;;;0.50;0.50;;;;;;;12.29;79.05;96611.06;5005661;28;20114;-82
2023/10/27 11:08:34;;;;;;;0.50;0.50;;;;;;;12.24;79.51;96614.72;5003826;28;20052;-82
2023/10/27 11:11:14;;;;;;;0.50;0.50;;;;;;;12.27;78.44;96609.34;5028030;28;20164;-81
2023/10/27 11:13:43;;;;;;;0.50;0.50;;;;;;;12.01;78.30;96618.50;5026447;28;20112;-80
2023/10/27 11:16:16;;;;;;;0.60;0.60;;;;;;;12.16;79.56;96617.47;5033102;28;20044;-81
2023/10/27 11:18:44;;;;;;;0.50;0.50;;;;;;;12.20;79.05;96624.53;5014571;28;20082;-83
2023/10/27 11:21:24;;;;;;;0.60;0.60;;;;;;;12.27;78.92;96612.03;5031388;28;20033;-82
2023/10/27 11:23:51;;;;;;;0.60;0.60;;;;;;;12.76;76.84;96608.72;5036452;28;20138;-82
2023/10/27 11:26:19;;;;;;;0.52;0.52;;;;;;;12.93;76.00;96608.47;5038450;28;20038;-82
2023/10/27 11:28:46;;;;;;;0.50;0.50;;;;;;;13.66;73.66;96604.69;5041745;28;20048;-82
2023/10/27 11:31:22;;;;;;;0.60;0.60;;;;;;;13.57;71.89;96612.88;5037109;28;20033;-82
2023/10/27 11:34:11;;;;;;;0.50;0.50;;;;;;;13.69;72.30;96603.72;5037502;28;20128;-82
2023/10/27 11:37:07;;;;;;;0.40;0.40;;;;;;;13.37;72.75;96602.50;5027165;28;20041;-82